Terminal Aerodrome Forecast
Issued by NWS

Home | Current Version | Previous Version | Text Only | Print | Product List | Glossary On
Versions: 1 2 3 4 5 6 7 8 9 10 11 12 13 14 15 16 17 18 19
000
FTPA31 PHFO 191129
TAFHNY
TAF
PHNY 191129Z 1912/2012 03010KT P6SM FEW025
     FM192000 26007KT P6SM BKN025
     FM200400 04010KT P6SM SCT025=

USA.gov is the U.S. government's official web portal to all federal, state and local government web resources and services.